KBVO/BVO METAR and TAF weather

Enter ICAO airport designator
Station Type Date Time Source
KBVO METAR 2019/08/24 09:53 UTC NOAA

KBVO 240953Z AUTO 00000KT 10SM BKN025 OVC030 22/21 A3000 RMK AO2 SLP150 T02170211


Station Type Date Time Source
KBVO Decoded METAR 2019/08/24 09:53 UTC NOAA

Station name not available
Aug 24, 2019 - 05:53 AM EDT / 2019.08.24 0953 UTC
Wind: Calm:0
Visibility: 10 mile(s):0
Sky conditions: overcast
Temperature: 71.1 F (21.7 C)
Dew Point: 70.0 F (21.1 C)
Relative Humidity: 96%
Pressure (altimeter): 30 in. Hg (1015 hPa)
ob: KBVO 240953Z AUTO 00000KT 10SM BKN025 OVC030 22/21 A3000 RMK AO2 SLP150 T02170211
cycle: 10

Station Type Date Time Source
KBVO TAF 2019/08/24 09:30 UTC NOAA

TAF
AMD KBVO 240927Z 2409/2506 00000KT P6SM OVC050
TEMPO 2409/2413 BKN025
FM241300 09005KT P6SM OVC015
FM241800 10008KT P6SM OVC025
FM242100 12007KT P6SM BKN050
FM250000 12006KT P6SM BKN250

Example: see airport list